Aérodrome :
LOGIN :

S'inscrire | Disclaimer

   EN    FR    IT 

 










Légende :    VFR   VFR Marginal   IFR   IFR Intensif   IFR Très Intensif
Visi : 
Plafond : 
>= 8 km
>= 3000ft
5 à 8 km
1000 à 3000 ft
1500m à 5 km
500 à 1000 ft
800 à 1500m
200 à 500 ft
< 800m
< 200 ft
Symboles :   Orages  Brouillard  Fortes neiges  Fortes précipitations  Vent > 20 kt
SIGMETs :   Divers  Orages  Givrage  Turbulence  Onde Orograph.  Cendres Volcan.







- Altitude de l'aérodrome : 1300 ft
- Code IATA : LIG
- Voir les cartes d'approche


LFBL - Limoges

DERNIER METAR :
  • 221500Z AUTO 22003KT 5000 -FZRADZ BR OVC003 M00/M01 Q1005 TEMPO 2000 BR

METARs EXPIRÉS :
  • 221430Z AUTO 20003KT 160V230 1700 -SN BR BKN003 OVC008 M00/M01 Q1006 TEMPO 1200 -SN
  • 221400Z AUTO 18006KT 2100 -SN BR OVC003 M01/M01 Q1006 TEMPO 1200 -SN
  • 221330Z AUTO 17009KT 1400 1200 R21/1900U R03/1900U -SN BR OVC003 M01/M01 Q1006 NOSIG
  • 221300Z AUTO 17010KT 1200 1000 R21/1700D R03/1500D SN BR OVC003 M01/M01 Q1006 TEMPO NSW
  • 221230Z AUTO 17010KT 1300 1100 R21/1800N R03/1600D SN BR OVC003 M01/M01 Q1007 TEMPO NSW

TAF AMD TAF LFBL
Valide du 22 à 12h jusqu'au 23 à 12h UTC


221214Z 2212/2312 16008KT 9999 BKN007
TEMPO 2212/2216 1200 -SN OVC003
BECMG 2214/2216 20005KT
TEMPO 2216/2222 2000 BR OVC002
PROB30
TEMPO 2217/2222 0500 FG VV///
PROB30
TEMPO 2222/2302 1500 -SN VV///
PROB40
TEMPO 2304/2309 2000 -SNRA BKN003
PROB30
TEMPO 2305/2307 1500 -SN VV///
BECMG 2307/2309 33012KT
BECMG 2310/2312 BKN013
ATIS : +33 5 55 48 40 37
Pas de NOTAMs connus pour ce terrain.



MET'MAP, la Météo Aéronautique d'un coup d'oeil ! - Copyright ORBIFLY Décembre 2007 - Disclaimer

ORBIFLY MET'MAP TEAM :

Programmation & Développement : Alexandra Zaïnal
Conception & Développement : Baudouin d'Aumeries
Co-Programmation & Développement : Marc-Olivier Méhu
Soutien technique & logistique : Manuel Goepfert

Contact : metmap@orbifly.com




SOURCES & CREDITS :

   NOAA